Time;durP1;ratioP1;P1;durP2;ratioP2;P2;SDS_P1;SDS_P2;PMS_P1;PMS_P2;Temp;Humidity;BMP_temperature;BMP_pressure;BME280_temperature;BME280_humidity;BME280_pressure;Samples;Min_cycle;Max_cycle;Signal;HPM_P1;HPM_P2
2022/07/08 00:00:41;;;;;;;10.73;7.97;;;;;;;17.22;100.00;97242.50;5092934;28;20056;-60
2022/07/08 00:03:09;;;;;;;9.00;8.13;;;;;;;16.90;100.00;97245.19;5092570;28;20091;-61
2022/07/08 00:05:39;;;;;;;9.95;8.27;;;;;;;17.06;100.00;97242.50;5091921;28;20083;-60
2022/07/08 00:08:08;;;;;;;12.23;8.20;;;;;;;17.18;100.00;97249.19;5084323;28;20044;-61
2022/07/08 00:10:37;;;;;;;9.15;8.23;;;;;;;16.97;100.00;97239.00;5090337;28;20072;-60
2022/07/08 00:13:05;;;;;;;9.95;8.25;;;;;;;17.05;100.00;97232.84;5091132;28;20079;-60
2022/07/08 00:15:34;;;;;;;8.70;7.95;;;;;;;17.22;100.00;97234.50;5091510;28;20479;-61
2022/07/08 00:18:02;;;;;;;10.98;8.00;;;;;;;17.24;100.00;97232.53;5085368;28;20092;-60
2022/07/08 00:20:31;;;;;;;8.75;7.82;;;;;;;17.41;100.00;97232.50;5088043;28;20091;-61
2022/07/08 00:23:01;;;;;;;13.93;8.80;;;;;;;17.08;100.00;97230.69;5089542;28;20083;-59
2022/07/08 00:25:29;;;;;;;8.55;7.65;;;;;;;17.05;100.00;97219.53;5088475;28;20074;-59
2022/07/08 00:27:58;;;;;;;10.10;7.40;;;;;;;17.21;100.00;97229.34;5089567;28;20194;-59
2022/07/08 00:30:26;;;;;;;12.65;9.15;;;;;;;17.23;100.00;97224.69;5090472;28;20130;-59
2022/07/08 00:32:55;;;;;;;14.48;8.05;;;;;;;16.95;100.00;97225.00;5091363;28;20070;-60
2022/07/08 00:35:24;;;;;;;10.63;8.38;;;;;;;17.05;100.00;97230.19;5087615;28;20101;-60
2022/07/08 00:37:53;;;;;;;9.40;8.60;;;;;;;17.05;100.00;97222.19;5089548;28;20075;-60
2022/07/08 00:40:23;;;;;;;9.23;7.82;;;;;;;16.97;100.00;97244.34;5090823;28;20068;-60
2022/07/08 00:42:52;;;;;;;8.55;7.57;;;;;;;17.04;100.00;97232.03;5082916;28;20071;-59
2022/07/08 00:45:20;;;;;;;9.18;8.30;;;;;;;17.34;100.00;97232.31;5089888;28;20076;-60
2022/07/08 00:47:49;;;;;;;8.27;7.35;;;;;;;17.23;100.00;97225.50;5089746;28;20079;-60
2022/07/08 00:50:18;;;;;;;9.07;8.18;;;;;;;17.04;100.00;97229.34;5083965;28;20549;-60
2022/07/08 00:52:47;;;;;;;9.57;8.65;;;;;;;17.26;100.00;97237.66;5089943;28;20178;-61
2022/07/08 00:55:17;;;;;;;12.13;8.23;;;;;;;17.06;100.00;97229.16;5083856;28;20542;-60
2022/07/08 00:57:46;;;;;;;11.82;8.25;;;;;;;16.96;100.00;97233.81;5089999;28;20094;-60
2022/07/08 01:00:15;;;;;;;9.13;6.82;;;;;;;17.08;100.00;97233.34;5096996;28;20072;-58
2022/07/08 01:02:44;;;;;;;10.57;8.05;;;;;;;17.14;100.00;97228.38;5088340;28;20080;-61
2022/07/08 01:05:12;;;;;;;8.70;6.97;;;;;;;17.00;100.00;97221.88;5090174;28;20549;-60
2022/07/08 01:07:41;;;;;;;9.18;8.40;;;;;;;16.93;100.00;97232.34;5089820;28;20083;-59
2022/07/08 01:10:10;;;;;;;8.05;7.25;;;;;;;16.92;100.00;97227.16;5089871;28;20097;-60
2022/07/08 01:12:38;;;;;;;8.70;7.75;;;;;;;17.05;100.00;97232.84;5089623;28;20094;-60
2022/07/08 01:15:09;;;;;;;9.50;8.27;;;;;;;17.14;100.00;97234.53;5090068;28;20106;-60
2022/07/08 01:17:41;;;;;;;9.85;7.05;;;;;;;16.98;100.00;97234.50;5086165;28;20090;-60
2022/07/08 01:20:11;;;;;;;11.18;7.10;;;;;;;17.18;100.00;97230.53;5085740;28;20082;-59
2022/07/08 01:22:41;;;;;;;8.23;6.85;;;;;;;17.12;100.00;97233.84;5089918;28;20094;-60
2022/07/08 01:25:10;;;;;;;9.48;8.57;;;;;;;17.25;100.00;97233.34;5083973;28;20526;-60
2022/07/08 01:27:39;;;;;;;8.70;7.77;;;;;;;17.20;100.00;97233.81;5089757;28;20117;-60
2022/07/08 01:30:08;;;;;;;9.02;8.07;;;;;;;17.21;100.00;97232.84;5086522;28;20086;-60
2022/07/08 01:32:39;;;;;;;9.32;8.32;;;;;;;17.18;100.00;97227.84;5089573;28;20071;-58
2022/07/08 01:35:08;;;;;;;;;;;;;;;17.03;100.00;97243.69;5089971;28;20080;-59
2022/07/08 01:37:36;;;;;;;10.13;7.10;;;;;;;16.85;100.00;97251.81;5088673;28;19962;-60
2022/07/08 01:40:07;;;;;;;9.98;8.15;;;;;;;16.90;100.00;97247.84;5088650;28;20075;-60
2022/07/08 01:42:35;;;;;;;8.93;8.23;;;;;;;16.93;100.00;97260.81;5089429;28;20072;-59
2022/07/08 01:45:04;;;;;;;7.30;6.40;;;;;;;16.93;100.00;97264.31;5084752;28;20091;-60
2022/07/08 01:47:33;;;;;;;6.38;5.78;;;;;;;16.79;100.00;97270.28;5088186;28;20076;-59
2022/07/08 01:50:01;;;;;;;7.93;7.13;;;;;;;16.90;100.00;97272.66;5088991;28;20098;-58
2022/07/08 01:52:29;;;;;;;9.02;6.20;;;;;;;16.68;100.00;97274.03;5089200;28;20075;-58
2022/07/08 01:54:58;;;;;;;8.85;5.90;;;;;;;16.27;100.00;97252.63;5092917;28;20074;-57
2022/07/08 01:57:28;;;;;;;6.82;6.30;;;;;;;15.72;100.00;97257.50;5097212;28;20079;-56
2022/07/08 01:59:56;;;;;;;7.22;4.55;;;;;;;15.69;100.00;97268.47;5088233;28;20083;-58
2022/07/08 02:02:25;;;;;;;8.25;4.28;;;;;;;15.60;100.00;97270.22;5089222;28;20495;-58
2022/07/08 02:04:53;;;;;;;13.38;5.15;;;;;;;15.64;100.00;97276.88;5089074;28;20092;-58
2022/07/08 02:07:21;;;;;;;5.30;4.53;;;;;;;15.61;100.00;97269.22;5089297;28;20080;-58
2022/07/08 02:09:50;;;;;;;6.22;5.18;;;;;;;15.41;100.00;97273.88;5088354;28;20063;-56
2022/07/08 02:12:20;;;;;;;8.23;4.88;;;;;;;15.52;100.00;97275.47;5089133;28;20091;-56
2022/07/08 02:14:51;;;;;;;4.68;3.70;;;;;;;15.42;100.00;97270.25;5086216;28;20052;-58
2022/07/08 02:17:20;;;;;;;;;;;;;;;15.27;100.00;97272.63;5083307;28;20071;-55
2022/07/08 02:19:48;;;;;;;7.47;3.60;;;;;;;15.53;100.00;97283.28;5088637;28;19956;-58
2022/07/08 02:22:17;;;;;;;5.75;3.90;;;;;;;15.36;100.00;97273.53;5088796;28;20083;-58
2022/07/08 02:24:47;;;;;;;6.90;3.60;;;;;;;15.50;100.00;97274.78;5086850;28;20072;-57
2022/07/08 02:27:16;;;;;;;7.10;3.92;;;;;;;15.53;100.00;97280.63;5084453;28;20530;-58
2022/07/08 02:29:44;;;;;;;7.35;3.67;;;;;;;15.72;100.00;97268.16;5089065;28;20084;-58
2022/07/08 02:32:14;;;;;;;8.48;4.10;;;;;;;15.66;100.00;97278.44;5088766;28;20125;-57
2022/07/08 02:34:42;;;;;;;5.93;3.07;;;;;;;15.53;100.00;97285.94;5088773;28;20106;-56
2022/07/08 02:37:11;;;;;;;5.55;3.38;;;;;;;15.43;100.00;97287.88;5088614;28;20082;-56
2022/07/08 02:39:39;;;;;;;11.00;4.55;;;;;;;15.30;100.00;97293.56;5088365;28;20749;-58
2022/07/08 02:42:08;;;;;;;8.20;3.72;;;;;;;15.29;100.00;97299.06;5085499;28;20510;-57
2022/07/08 02:44:37;;;;;;;7.88;4.30;;;;;;;15.26;100.00;97302.00;5088673;28;20068;-57
2022/07/08 02:47:07;;;;;;;7.28;3.35;;;;;;;15.24;100.00;97310.13;5088734;28;20447;-58
2022/07/08 02:49:37;;;;;;;6.63;4.00;;;;;;;15.40;100.00;97309.44;5090297;28;20086;-57
2022/07/08 02:52:05;;;;;;;6.10;3.25;;;;;;;15.14;100.00;97312.03;5099384;28;20529;-57
2022/07/08 02:54:34;;;;;;;7.20;3.97;;;;;;;15.29;100.00;97310.53;5094231;28;20477;-58
2022/07/08 02:57:02;;;;;;;7.72;3.50;;;;;;;15.24;100.00;97309.28;5090621;28;20088;-58
2022/07/08 02:59:31;;;;;;;7.05;4.10;;;;;;;15.20;100.00;97308.75;5092279;28;20086;-58
2022/07/08 03:01:59;;;;;;;8.27;3.78;;;;;;;15.16;100.00;97308.22;5092227;28;20083;-58
2022/07/08 03:04:27;;;;;;;6.75;4.05;;;;;;;15.19;100.00;97315.06;5092763;28;20088;-58
2022/07/08 03:06:57;;;;;;;8.75;5.68;;;;;;;15.03;100.00;97318.41;5092495;28;20083;-56
2022/07/08 03:09:25;;;;;;;7.40;4.13;;;;;;;15.13;100.00;97321.81;5091038;28;20074;-55
2022/07/08 03:11:54;;;;;;;5.28;3.72;;;;;;;15.15;100.00;97324.34;5092463;28;20493;-57
2022/07/08 03:14:22;;;;;;;7.22;4.13;;;;;;;15.20;100.00;97340.66;5092216;28;20071;-54
2022/07/08 03:16:51;;;;;;;8.65;3.83;;;;;;;15.25;100.00;97343.72;5089090;28;20072;-57
2022/07/08 03:19:19;;;;;;;6.85;3.13;;;;;;;15.33;100.00;97343.75;5092367;28;20079;-57
2022/07/08 03:21:48;;;;;;;8.23;5.40;;;;;;;15.27;100.00;97348.84;5092186;28;20036;-57
2022/07/08 03:24:18;;;;;;;5.25;3.53;;;;;;;15.10;100.00;97346.03;5090392;28;20102;-57
2022/07/08 03:26:46;;;;;;;8.77;4.15;;;;;;;15.24;100.00;97346.50;5091671;28;20529;-55
2022/07/08 03:29:14;;;;;;;7.47;3.70;;;;;;;15.20;100.00;97344.13;5092016;28;20067;-56
2022/07/08 03:31:43;;;;;;;10.75;4.80;;;;;;;15.44;100.00;97342.69;5091801;28;20095;-56
2022/07/08 03:34:11;;;;;;;9.05;4.50;;;;;;;15.34;100.00;97344.59;5091985;28;20517;-54
2022/07/08 03:36:40;;;;;;;8.25;4.55;;;;;;;15.35;100.00;97363.06;5092143;28;20514;-57
2022/07/08 03:39:08;;;;;;;8.18;3.78;;;;;;;15.34;100.00;97366.69;5085370;28;20083;-57
2022/07/08 03:41:37;;;;;;;6.78;4.07;;;;;;;15.33;100.00;97369.50;5091160;28;20075;-57
2022/07/08 03:44:05;;;;;;;7.45;4.18;;;;;;;15.23;100.00;97371.41;5091917;28;20079;-57
2022/07/08 03:46:34;;;;;;;7.53;4.75;;;;;;;15.18;100.00;97364.72;5092787;28;20067;-55
2022/07/08 03:49:02;;;;;;;6.35;4.50;;;;;;;15.35;100.00;97373.69;5092741;28;20070;-51
2022/07/08 03:51:31;;;;;;;13.40;5.05;;;;;;;15.36;100.00;97371.88;5087686;28;20060;-56
2022/07/08 03:53:59;;;;;;;5.22;3.45;;;;;;;15.20;100.00;97384.00;5090501;28;20088;-57
2022/07/08 03:56:28;;;;;;;6.40;3.50;;;;;;;15.12;100.00;97397.22;5091554;28;20071;-57
2022/07/08 03:58:57;;;;;;;11.07;4.75;;;;;;;15.25;100.00;97396.84;5089852;28;20074;-58
2022/07/08 04:01:26;;;;;;;5.68;4.22;;;;;;;15.42;100.00;97396.03;5089705;28;20083;-54
2022/07/08 04:03:54;;;;;;;6.68;4.15;;;;;;;15.26;100.00;97392.38;5091520;28;20165;-55
2022/07/08 04:06:23;;;;;;;9.38;4.53;;;;;;;14.89;100.00;97395.94;5088692;28;20082;-57
2022/07/08 04:08:51;;;;;;;6.07;3.33;;;;;;;14.70;100.00;97408.34;5091406;28;20078;-57
2022/07/08 04:11:19;;;;;;;7.88;4.03;;;;;;;15.28;100.00;97387.72;5090961;28;20463;-54
2022/07/08 04:13:48;;;;;;;6.05;3.67;;;;;;;15.15;100.00;97396.09;5090917;28;20570;-56
2022/07/08 04:16:18;;;;;;;7.55;3.63;;;;;;;14.93;100.00;97398.19;5082703;28;20084;-57
2022/07/08 04:18:46;;;;;;;8.93;3.42;;;;;;;14.96;100.00;97402.34;5084870;28;20573;-54
2022/07/08 04:21:15;;;;;;;7.28;4.28;;;;;;;15.17;100.00;97399.41;5087609;28;20458;-57
2022/07/08 04:23:43;;;;;;;7.32;3.67;;;;;;;15.04;100.00;97409.59;5090136;28;20435;-57
2022/07/08 04:26:12;;;;;;;6.55;3.38;;;;;;;15.04;100.00;97407.75;5090842;28;20552;-56
2022/07/08 04:28:42;;;;;;;6.57;5.50;;;;;;;16.94;100.00;97399.22;5091084;28;20090;-57
2022/07/08 04:31:10;;;;;;;10.25;6.25;;;;;;;17.77;100.00;97398.38;5090061;28;20079;-58
2022/07/08 04:33:40;;;;;;;6.65;5.63;;;;;;;18.70;100.00;97392.53;5088421;28;20076;-58
2022/07/08 04:36:09;;;;;;;7.85;4.88;;;;;;;19.10;100.00;97388.88;5089661;28;20090;-58
2022/07/08 04:38:38;;;;;;;8.77;7.13;;;;;;;19.35;100.00;97396.75;5090917;28;20099;-57
2022/07/08 04:41:06;;;;;;;7.47;6.68;;;;;;;20.18;100.00;97395.13;5090321;28;20080;-55
2022/07/08 04:43:51;;;;;;;13.15;7.32;;;;;;;20.05;100.00;97398.44;5092442;28;20076;-58
2022/07/08 04:46:28;;;;;;;7.30;6.57;;;;;;;20.27;100.00;97400.25;5094801;28;20040;-57
2022/07/08 04:48:58;;;;;;;8.27;7.30;;;;;;;21.08;100.00;97401.16;5088629;28;20040;-58
2022/07/08 04:51:27;;;;;;;7.60;6.95;;;;;;;20.15;100.00;97407.03;5090120;28;20072;-57
2022/07/08 04:53:57;;;;;;;10.00;6.55;;;;;;;20.29;100.00;97406.22;5088004;28;20071;-58
2022/07/08 04:56:25;;;;;;;8.40;7.57;;;;;;;20.25;100.00;97415.66;5089881;28;20059;-59
2022/07/08 04:58:54;;;;;;;8.15;7.35;;;;;;;19.86;100.00;97415.84;5090478;28;20496;-57
2022/07/08 05:01:22;;;;;;;9.45;8.07;;;;;;;20.42;100.00;97412.81;5090115;28;20075;-59
2022/07/08 05:03:51;;;;;;;9.48;7.50;;;;;;;20.72;100.00;97411.03;5090201;28;20102;-59
2022/07/08 05:06:20;;;;;;;8.40;7.68;;;;;;;20.62;100.00;97413.97;5090130;28;20094;-56
2022/07/08 05:08:49;;;;;;;10.50;7.50;;;;;;;20.45;100.00;97420.50;5083505;28;20079;-57
2022/07/08 05:11:17;;;;;;;6.88;6.25;;;;;;;20.37;100.00;97422.25;5087498;28;20068;-58
2022/07/08 05:13:46;;;;;;;8.82;7.95;;;;;;;20.50;100.00;97429.66;5090121;28;20078;-57
2022/07/08 05:16:14;;;;;;;7.85;7.00;;;;;;;21.34;100.00;97426.69;5083584;28;20055;-57
2022/07/08 05:18:43;;;;;;;7.28;6.65;;;;;;;21.07;100.00;97428.19;5089870;28;20079;-57
2022/07/08 05:21:11;;;;;;;8.02;7.32;;;;;;;20.22;100.00;97439.28;5089364;28;20075;-59
2022/07/08 05:23:41;;;;;;;7.32;6.15;;;;;;;20.81;100.00;97431.34;5089749;28;20051;-57
2022/07/08 05:26:09;;;;;;;6.53;5.93;;;;;;;20.79;100.00;97428.84;5089970;28;20071;-54
2022/07/08 05:28:38;;;;;;;7.75;6.88;;;;;;;20.83;100.00;97426.63;5089917;28;20075;-58
2022/07/08 05:31:06;;;;;;;7.20;5.90;;;;;;;20.90;100.00;97434.75;5088848;28;20075;-59
2022/07/08 05:33:35;;;;;;;7.13;6.35;;;;;;;20.13;100.00;97434.00;5089478;28;20079;-59
2022/07/08 05:36:06;;;;;;;7.50;6.88;;;;;;;20.27;100.00;97444.94;5089216;28;20086;-59
2022/07/08 05:38:34;;;;;;;8.05;6.55;;;;;;;20.00;100.00;97444.50;5087923;28;20048;-55
2022/07/08 05:41:04;;;;;;;8.50;6.80;;;;;;;19.70;100.00;97453.44;5098215;28;20066;-57
2022/07/08 05:43:33;;;;;;;7.72;6.65;;;;;;;19.53;100.00;97450.81;5091387;28;20082;-53
2022/07/08 05:46:01;;;;;;;7.30;6.00;;;;;;;19.33;100.00;97453.09;5087439;28;20462;-59
2022/07/08 05:48:29;;;;;;;7.95;7.32;;;;;;;19.43;100.00;97448.34;5089594;28;20082;-58
2022/07/08 05:50:58;;;;;;;6.38;5.72;;;;;;;19.84;100.00;97453.47;5089336;28;20075;-58
2022/07/08 05:53:27;;;;;;;7.32;6.70;;;;;;;19.85;100.00;97459.66;5089318;28;20095;-58
2022/07/08 05:55:56;;;;;;;9.07;6.82;;;;;;;20.12;100.00;97458.28;5085938;28;20106;-58
2022/07/08 05:58:25;;;;;;;10.60;6.43;;;;;;;20.21;100.00;97457.22;5085766;28;20166;-58
2022/07/08 06:00:54;;;;;;;6.68;5.70;;;;;;;20.25;100.00;97465.72;5087809;28;20668;-58
2022/07/08 06:03:22;;;;;;;5.90;4.97;;;;;;;19.72;100.00;97459.41;5088827;28;20076;-58
2022/07/08 06:05:51;;;;;;;8.68;5.68;;;;;;;19.31;100.00;97455.13;5089241;28;20079;-57
2022/07/08 06:08:27;;;;;;;6.28;5.35;;;;;;;19.20;100.00;97459.03;5089172;28;20076;-58
2022/07/08 06:10:56;;;;;;;8.23;5.00;;;;;;;19.16;100.00;97462.22;5088811;28;20075;-57
2022/07/08 06:13:26;;;;;;;8.95;6.28;;;;;;;18.48;100.00;97467.06;5088860;28;20072;-53
2022/07/08 06:15:54;;;;;;;8.57;7.40;;;;;;;17.81;100.00;97474.44;5088727;28;20079;-57
2022/07/08 06:18:23;;;;;;;9.20;5.32;;;;;;;18.02;100.00;97479.28;5088683;28;20094;-57
2022/07/08 06:20:51;;;;;;;5.53;4.97;;;;;;;18.35;100.00;97485.44;5088762;28;20079;-57
2022/07/08 06:23:20;;;;;;;10.95;6.07;;;;;;;18.17;100.00;97485.63;5088924;28;20088;-56
2022/07/08 06:25:49;;;;;;;6.47;5.60;;;;;;;18.24;100.00;97483.97;5092444;28;20087;-57
2022/07/08 06:28:17;;;;;;;5.32;4.80;;;;;;;18.20;100.00;97479.97;5092127;28;20468;-58
2022/07/08 06:30:47;;;;;;;11.02;5.07;;;;;;;17.74;100.00;97478.72;5092913;28;20063;-57
2022/07/08 06:33:16;;;;;;;7.20;4.35;;;;;;;17.97;100.00;97484.28;5093155;28;20095;-57
2022/07/08 06:35:44;;;;;;;10.02;6.22;;;;;;;17.80;100.00;97488.78;5094804;28;20773;-56
2022/07/08 06:38:13;;;;;;;7.45;4.13;;;;;;;17.77;100.00;97486.44;5095363;28;20079;-57
2022/07/08 06:40:41;;;;;;;8.23;4.85;;;;;;;17.99;100.00;97492.94;5091346;28;20080;-57
2022/07/08 06:43:09;;;;;;;8.63;4.28;;;;;;;18.05;100.00;97478.94;5092782;28;20701;-57
2022/07/08 06:45:38;;;;;;;8.68;3.60;;;;;;;17.87;100.00;97480.94;5092724;28;20076;-48
2022/07/08 06:48:08;;;;;;;8.85;3.92;;;;;;;17.75;100.00;97478.53;5092878;28;20492;-57
2022/07/08 06:50:37;;;;;;;6.80;4.30;;;;;;;17.90;100.00;97478.78;5086341;28;20533;-52
2022/07/08 06:53:05;;;;;;;6.93;4.25;;;;;;;18.16;100.00;97483.13;5092501;28;20079;-55
2022/07/08 06:55:33;;;;;;;6.43;4.03;;;;;;;18.60;100.00;97488.09;5088369;28;20489;-56
2022/07/08 06:58:02;;;;;;;6.70;4.35;;;;;;;18.53;100.00;97492.44;5092194;28;20083;-55
2022/07/08 07:00:30;;;;;;;7.93;4.20;;;;;;;18.79;100.00;97492.25;5092279;28;20075;-54
2022/07/08 07:02:59;;;;;;;7.38;3.55;;;;;;;19.27;100.00;97487.72;5092535;28;20087;-55
2022/07/08 07:05:28;;;;;;;7.80;4.05;;;;;;;19.27;100.00;97498.44;5092489;28;20461;-57
2022/07/08 07:07:57;;;;;;;9.18;4.75;;;;;;;19.82;100.00;97492.13;5092652;28;20083;-56
2022/07/08 07:10:25;;;;;;;6.93;3.95;;;;;;;19.62;100.00;97502.47;5086715;28;20080;-55
2022/07/08 07:12:54;;;;;;;6.28;3.67;;;;;;;19.58;100.00;97496.63;5092415;28;20530;-57
2022/07/08 07:15:22;;;;;;;6.20;5.60;;;;;;;19.49;100.00;97497.66;5092092;28;20581;-58
2022/07/08 07:17:51;;;;;;;9.45;4.45;;;;;;;19.97;100.00;97495.72;5091690;28;20083;-58
2022/07/08 07:20:53;;;;;;;;;;;;;;;;;;;;;
2022/07/08 07:23:26;;;;;;;8.10;5.03;;;;;;;19.56;100.00;97500.47;5076415;28;20530;-54
2022/07/08 07:25:54;;;;;;;9.85;4.45;;;;;;;20.25;100.00;97492.50;5091845;28;20075;-52
2022/07/08 07:28:22;;;;;;;6.60;4.88;;;;;;;20.20;100.00;97500.22;5092176;28;20083;-56
2022/07/08 07:30:51;;;;;;;5.70;4.38;;;;;;;19.70;100.00;97499.75;5091707;28;20068;-56
2022/07/08 07:33:19;;;;;;;9.30;5.32;;;;;;;19.19;100.00;97502.81;5093711;28;20087;-58
2022/07/08 07:35:47;;;;;;;7.80;5.53;;;;;;;19.31;100.00;97505.94;5097534;28;20063;-56
2022/07/08 07:38:16;;;;;;;7.15;5.47;;;;;;;19.48;100.00;97508.53;5088527;28;20091;-56
2022/07/08 07:40:46;;;;;;;7.82;4.85;;;;;;;19.48;100.00;97514.75;5090952;28;20666;-57
2022/07/08 07:43:14;;;;;;;8.65;6.85;;;;;;;19.67;100.00;97513.47;5091577;28;20080;-58
2022/07/08 07:45:43;;;;;;;7.68;5.05;;;;;;;19.42;100.00;97512.75;5091691;28;20082;-58
2022/07/08 07:48:11;;;;;;;8.88;5.72;;;;;;;19.43;100.00;97514.41;5091879;28;20068;-56
2022/07/08 07:50:40;;;;;;;6.18;5.50;;;;;;;19.40;100.00;97522.78;5090812;28;20079;-54
2022/07/08 07:53:09;;;;;;;6.00;5.32;;;;;;;19.48;100.00;97520.09;5091927;28;20106;-58
2022/07/08 07:55:37;;;;;;;8.00;5.65;;;;;;;19.47;100.00;97526.44;5090960;28;20068;-58
2022/07/08 07:58:07;;;;;;;8.77;5.72;;;;;;;19.50;100.00;97527.94;5091552;28;20087;-57
2022/07/08 08:00:36;;;;;;;5.53;5.03;;;;;;;18.90;100.00;97526.66;5091287;28;20076;-55
2022/07/08 08:03:04;;;;;;;6.10;4.78;;;;;;;19.48;100.00;97528.13;5091486;28;20083;-57
2022/07/08 08:05:33;;;;;;;11.27;5.40;;;;;;;19.65;100.00;97526.22;5088932;28;20092;-57
2022/07/08 08:08:01;;;;;;;7.45;5.07;;;;;;;19.36;100.00;97526.81;5090719;28;20099;-58
2022/07/08 08:10:29;;;;;;;6.90;4.63;;;;;;;20.19;100.00;97520.00;5091573;28;20087;-58
2022/07/08 08:12:58;;;;;;;8.52;4.40;;;;;;;20.22;100.00;97528.50;5090804;28;20087;-58
2022/07/08 08:15:29;;;;;;;5.82;4.53;;;;;;;19.52;100.00;97524.06;5090834;28;20458;-57
2022/07/08 08:17:58;;;;;;;7.45;3.92;;;;;;;19.25;100.00;97529.88;5084322;28;20113;-58
2022/07/08 08:20:28;;;;;;;6.60;5.75;;;;;;;20.07;100.00;97528.47;5089307;28;20067;-57
2022/07/08 08:22:56;;;;;;;6.90;4.85;;;;;;;20.45;100.00;97531.19;5087397;28;20493;-56
2022/07/08 08:25:45;;;;;;;6.75;4.20;;;;;;;20.53;100.00;97528.44;5086065;28;20115;-58
2022/07/08 08:28:13;;;;;;;7.75;5.40;;;;;;;20.11;100.00;97534.28;5090244;28;20076;-56
2022/07/08 08:30:43;;;;;;;9.20;5.13;;;;;;;20.29;100.00;97532.13;5100332;28;20094;-57
2022/07/08 08:33:11;;;;;;;6.28;5.10;;;;;;;20.34;100.00;97531.63;5089893;28;20076;-53
2022/07/08 08:35:40;;;;;;;8.35;5.18;;;;;;;20.14;100.00;97532.09;5084379;28;20473;-57
2022/07/08 08:38:08;;;;;;;7.30;6.60;;;;;;;20.65;100.00;97534.22;5084455;28;20090;-49
2022/07/08 08:40:37;;;;;;;8.75;5.80;;;;;;;20.85;100.00;97534.50;5090604;28;20072;-53
2022/07/08 08:43:05;;;;;;;8.00;6.32;;;;;;;20.36;100.00;97537.59;5090577;28;20079;-53
2022/07/08 08:45:37;;;;;;;6.28;5.03;;;;;;;20.32;100.00;97539.81;5090613;28;20080;-57
2022/07/08 08:48:07;;;;;;;;;;;;;;;20.31;100.00;97534.66;5078598;28;20095;-54
2022/07/08 08:50:55;;;;;;;6.47;3.78;;;;;;;20.20;100.00;97543.94;5090205;28;19951;-56
2022/07/08 08:53:27;;;;;;;14.40;4.03;;;;;;;20.94;100.00;97540.63;5088152;28;20095;-59
2022/07/08 08:55:59;;;;;;;5.55;5.00;;;;;;;20.77;100.00;97535.44;5089986;28;20075;-58
2022/07/08 08:58:28;;;;;;;5.50;4.32;;;;;;;21.03;100.00;97531.50;5090099;28;20086;-59
2022/07/08 09:00:56;;;;;;;6.68;4.82;;;;;;;20.85;100.00;97539.88;5088110;28;20550;-57
2022/07/08 09:03:26;;;;;;;7.70;5.43;;;;;;;21.50;100.00;97530.28;5090206;28;20086;-57
2022/07/08 09:05:55;;;;;;;;;;;;;;;21.99;100.00;97530.47;5090894;28;20475;-57
2022/07/08 09:08:23;;;;;;;7.10;4.55;;;;;;;22.30;100.00;97533.88;5090114;28;19959;-56
2022/07/08 09:10:52;;;;;;;8.02;6.95;;;;;;;21.71;100.00;97541.09;5089387;28;20088;-58
2022/07/08 09:13:23;;;;;;;8.50;5.47;;;;;;;20.89;100.00;97546.56;5090252;28;20091;-54
2022/07/08 09:15:54;;;;;;;7.30;4.72;;;;;;;21.23;100.00;97540.66;5078553;28;20071;-56
2022/07/08 09:18:27;;;;;;;7.65;5.20;;;;;;;21.87;100.00;97541.88;5089624;28;20076;-56
2022/07/08 09:20:58;;;;;;;7.68;5.60;;;;;;;21.88;100.00;97538.16;5089590;28;20071;-57
2022/07/08 09:23:28;;;;;;;5.40;5.00;;;;;;;21.58;100.00;97535.56;5090098;28;20471;-56
2022/07/08 09:25:59;;;;;;;6.93;6.18;;;;;;;21.82;100.00;97539.78;5096601;28;20478;-58
2022/07/08 09:28:32;;;;;;;7.57;5.38;;;;;;;21.20;100.00;97545.56;5090834;28;20110;-57
2022/07/08 09:31:02;;;;;;;6.55;5.20;;;;;;;21.63;100.00;97535.00;5085617;28;20092;-57
2022/07/08 09:33:30;;;;;;;6.65;5.97;;;;;;;22.00;80.81;97537.50;5089792;28;20080;-54
2022/07/08 09:36:02;;;;;;;;;;;;;;;21.39;96.60;97530.78;5090311;28;20103;-58
2022/07/08 09:38:34;;;;;;;9.88;5.65;;;;;;;21.18;99.31;97537.69;5089702;28;19954;-57
2022/07/08 09:41:04;;;;;;;6.22;5.65;;;;;;;21.36;100.00;97536.50;5089008;28;20569;-58
2022/07/08 09:43:33;;;;;;;7.65;5.15;;;;;;;21.66;100.00;97535.44;5086493;28;20084;-58
2022/07/08 09:46:03;;;;;;;6.70;6.07;;;;;;;21.28;100.00;97537.41;5089172;28;20110;-55
2022/07/08 09:48:32;;;;;;;6.63;6.00;;;;;;;22.55;90.98;97543.22;5089589;28;20080;-58
2022/07/08 09:51:07;;;;;;;8.80;5.43;;;;;;;22.69;87.87;97544.16;5089593;28;20087;-58
2022/07/08 09:53:37;;;;;;;6.15;5.38;;;;;;;23.19;77.19;97536.84;5089710;28;20087;-58
2022/07/08 09:56:07;;;;;;;6.70;5.72;;;;;;;22.87;88.54;97540.97;5083428;28;20090;-53
2022/07/08 09:58:36;;;;;;;6.97;6.35;;;;;;;21.51;97.81;97534.66;5086796;28;20088;-56
2022/07/08 10:01:05;;;;;;;6.93;5.32;;;;;;;21.78;98.27;97538.47;5089508;28;20083;-56
2022/07/08 10:03:35;;;;;;;7.32;6.28;;;;;;;22.25;87.38;97540.66;5083567;28;20087;-58
2022/07/08 10:06:05;;;;;;;;;;;;;;;21.91;95.05;97546.69;5089241;28;20214;-58
2022/07/08 10:08:35;;;;;;;7.13;6.00;;;;;;;22.31;92.19;97540.94;5089089;28;20358;-58
2022/07/08 10:11:07;;;;;;;6.68;5.68;;;;;;;22.43;88.90;97537.50;5087590;28;20091;-58
2022/07/08 10:13:37;;;;;;;7.05;5.95;;;;;;;22.50;81.52;97549.19;5088967;28;20470;-58
2022/07/08 10:16:06;;;;;;;6.50;5.88;;;;;;;22.34;89.48;97546.75;5088989;28;20487;-58
2022/07/08 10:18:36;;;;;;;10.47;5.43;;;;;;;22.45;97.21;97548.91;5089319;28;20075;-56
2022/07/08 10:21:10;;;;;;;7.22;5.45;;;;;;;23.02;86.71;97546.28;5090987;28;20072;-58
2022/07/08 10:23:41;;;;;;;7.10;5.70;;;;;;;23.04;74.60;97552.31;5096036;28;20079;-55
2022/07/08 10:26:09;;;;;;;6.28;5.53;;;;;;;22.52;82.54;97555.19;5086384;28;20106;-58
2022/07/08 10:28:39;;;;;;;5.68;4.50;;;;;;;21.87;89.91;97558.81;5088690;28;20080;-55
2022/07/08 10:31:20;;;;;;;7.05;6.40;;;;;;;21.21;100.00;97566.00;5088934;28;20091;-57
2022/07/08 10:33:49;;;;;;;7.97;6.03;;;;;;;21.45;100.00;97560.38;5088664;28;20090;-53
2022/07/08 10:36:21;;;;;;;7.40;6.55;;;;;;;21.00;100.00;97559.50;5089309;28;20072;-56
2022/07/08 10:38:50;;;;;;;6.88;4.57;;;;;;;21.83;100.00;97554.03;5082783;28;20075;-57
2022/07/08 10:41:20;;;;;;;6.93;5.68;;;;;;;21.53;100.00;97556.75;5082624;28;20133;-57
2022/07/08 10:43:52;;;;;;;8.60;5.95;;;;;;;22.56;100.00;97554.78;5083373;28;20534;-56
2022/07/08 10:46:21;;;;;;;6.03;5.43;;;;;;;22.04;95.67;97562.13;5088983;28;20085;-54
2022/07/08 10:48:54;;;;;;;10.05;5.85;;;;;;;22.06;100.00;97565.47;5088466;28;20477;-58
2022/07/08 10:52:02;;;;;;;6.95;5.15;;;;;;;22.67;77.07;97559.63;5089125;28;20082;-56
2022/07/08 10:54:37;;;;;;;6.45;5.10;;;;;;;22.70;78.50;97560.09;5071991;28;20076;-56
2022/07/08 10:57:10;;;;;;;8.20;7.45;;;;;;;22.63;72.62;97553.81;5088417;28;20099;-57
2022/07/08 10:59:39;;;;;;;6.47;4.70;;;;;;;23.17;82.49;97544.31;5088700;28;20091;-58
2022/07/08 11:02:09;;;;;;;6.38;5.72;;;;;;;23.61;61.73;97535.84;5088416;28;20090;-58
2022/07/08 11:04:50;;;;;;;6.38;5.78;;;;;;;23.74;63.93;97532.38;5089408;28;20084;-57
2022/07/08 11:07:26;;;;;;;8.20;7.13;;;;;;;22.98;85.05;97535.91;5088238;28;20076;-55
2022/07/08 11:09:57;;;;;;;7.95;6.63;;;;;;;22.62;86.35;97544.09;5089218;28;20080;-57
2022/07/08 11:12:27;;;;;;;7.00;5.78;;;;;;;23.14;78.65;97558.16;5089382;28;20086;-54
2022/07/08 11:14:58;;;;;;;10.00;8.93;;;;;;;22.20;77.66;97545.78;5086477;28;20090;-54
2022/07/08 11:17:28;;;;;;;9.20;6.82;;;;;;;22.46;87.62;97545.19;5092276;28;20067;-55
2022/07/08 11:19:58;;;;;;;7.03;6.07;;;;;;;22.46;90.66;97545.19;5102437;28;20475;-57
2022/07/08 11:22:28;;;;;;;6.80;5.80;;;;;;;22.64;85.58;97547.44;5089054;28;20086;-55
2022/07/08 11:24:57;;;;;;;5.82;5.38;;;;;;;22.40;82.60;97553.19;5092236;28;20078;-57
2022/07/08 11:27:26;;;;;;;7.82;7.22;;;;;;;22.50;84.21;97554.56;5092106;28;20091;-57
2022/07/08 11:29:55;;;;;;;5.78;5.05;;;;;;;22.72;76.40;97551.84;5091875;28;20076;-52
2022/07/08 11:32:26;;;;;;;7.93;5.20;;;;;;;22.97;79.39;97550.38;5091587;28;20564;-55
2022/07/08 11:34:56;;;;;;;5.80;5.28;;;;;;;23.81;60.28;97546.75;5092035;28;20505;-55
2022/07/08 11:37:24;;;;;;;6.25;5.65;;;;;;;23.10;61.26;97552.34;5091537;28;20090;-57
2022/07/08 11:39:54;;;;;;;8.10;6.65;;;;;;;23.28;73.48;97554.53;5091771;28;20071;-58